createdAt,value
2019-06-10T00:00:50.684Z,65.59
2019-06-10T00:01:48.464Z,65.94
2019-06-10T00:02:50.647Z,65.59
2019-06-10T00:03:51.435Z,66.03
2019-06-10T00:04:50.713Z,66.33
2019-06-10T00:05:48.441Z,66.03
2019-06-10T00:06:50.844Z,65.69
2019-06-10T00:07:48.434Z,66.13
2019-06-10T00:08:50.492Z,66.07
2019-06-10T00:09:48.429Z,65.46
2019-06-10T00:10:50.921Z,66.03
2019-06-10T00:11:51.483Z,65.36
2019-06-10T00:12:48.412Z,66.61
2019-06-10T00:13:50.663Z,66.03
2019-06-10T00:14:48.403Z,66.03
2019-06-10T00:15:48.404Z,66.71
2019-06-10T00:16:50.673Z,67.29
2019-06-10T00:17:59.313Z,66.52
2019-06-10T00:18:50.840Z,66.52
2019-06-10T00:19:48.391Z,66.80
2019-06-10T00:20:48.380Z,67.29
2019-06-10T00:21:50.741Z,67.47
2019-06-10T00:22:48.371Z,67.29
2019-06-10T00:23:48.363Z,67.96
2019-06-10T00:24:48.380Z,67.57
2019-06-10T00:25:48.357Z,67.96
2019-06-10T00:26:50.868Z,67.67
2019-06-10T00:27:48.347Z,68.24
2019-06-10T00:28:48.346Z,67.38
2019-06-10T00:29:48.342Z,67.73
2019-06-10T00:30:48.336Z,69.36
2019-06-10T00:31:50.659Z,69.68
2019-06-10T00:32:51.528Z,68.88
2019-06-10T00:33:48.317Z,69.11
2019-06-10T00:34:50.415Z,70.13
2019-06-10T00:35:48.313Z,69.65
2019-06-10T00:36:50.694Z,70.70
2019-06-10T00:37:48.304Z,70.99
2019-06-10T00:38:48.301Z,70.70
2019-06-10T00:39:48.298Z,70.99
2019-06-10T00:40:48.292Z,71.28
2019-06-10T00:41:48.286Z,71.09
2019-06-10T00:42:50.598Z,71.86
2019-06-10T00:43:48.277Z,72.24
2019-06-10T00:44:48.271Z,72.63
2019-06-10T00:45:48.273Z,72.43
2019-06-10T00:46:48.264Z,72.63
2019-06-10T00:47:50.753Z,73.00
2019-06-10T00:48:48.258Z,73.00
2019-06-10T00:49:48.253Z,73.20
2019-06-10T00:50:48.240Z,73.20
2019-06-10T00:51:50.749Z,72.91
2019-06-10T00:52:48.235Z,72.81
2019-06-10T00:53:48.230Z,72.63
2019-06-10T00:54:48.229Z,72.53
2019-06-10T00:55:48.223Z,73.58
2019-06-10T00:56:48.223Z,74.06
2019-06-10T00:57:48.214Z,73.58
2019-06-10T00:58:48.208Z,73.97
2019-06-10T00:59:50.659Z,73.58
2019-06-10T01:00:48.201Z,74.06
2019-06-10T01:01:50.728Z,74.06
2019-06-10T01:02:48.186Z,74.16
2019-06-10T01:03:50.769Z,73.97
2019-06-10T01:04:48.178Z,74.83
2019-06-10T01:05:50.700Z,73.20
2019-06-10T01:06:48.171Z,73.87
2019-06-10T01:07:50.660Z,73.87
2019-06-10T01:08:48.159Z,73.00
2019-06-10T01:09:48.160Z,73.97
2019-06-10T01:10:48.150Z,75.60
2019-06-10T01:11:48.149Z,75.31
2019-06-10T01:12:48.142Z,75.50
2019-06-10T01:13:48.143Z,74.83
2019-06-10T01:14:48.132Z,74.06
2019-06-10T01:15:48.131Z,73.49
2019-06-10T01:16:50.500Z,74.73
2019-06-10T01:17:48.120Z,75.21
2019-06-10T01:18:50.387Z,73.00
2019-06-10T01:19:48.112Z,75.50
2019-06-10T01:20:48.637Z,75.98
2019-06-10T01:21:48.104Z,74.54
2019-06-10T01:22:48.094Z,74.64
2019-06-10T01:23:48.094Z,75.21
2019-06-10T01:24:48.086Z,76.17
2019-06-10T01:25:48.082Z,76.27
2019-06-10T01:26:50.441Z,76.65
2019-06-10T01:27:48.071Z,77.71
2019-06-10T01:28:48.068Z,77.19
2019-06-10T01:29:48.071Z,78.15
2019-06-10T01:30:48.058Z,78.72
2019-06-10T01:31:48.053Z,77.95
2019-06-10T01:32:50.500Z,77.58
2019-06-10T01:33:48.047Z,77.95
2019-06-10T01:34:48.041Z,79.68
2019-06-10T01:35:48.031Z,79.39
2019-06-10T01:36:48.029Z,79.97
2019-06-10T01:37:48.029Z,78.44
2019-06-10T01:38:48.022Z,79.68
2019-06-10T01:39:48.019Z,77.76
2019-06-10T01:40:48.019Z,79.59
2019-06-10T01:41:48.009Z,79.68
2019-06-10T01:42:50.497Z,78.82
2019-06-10T01:43:48.000Z,79.78
2019-06-10T01:44:47.996Z,79.68
2019-06-10T01:45:47.990Z,80.16
2019-06-10T01:46:47.991Z,79.78
2019-06-10T01:47:47.976Z,81.02
2019-06-10T01:48:48.450Z,81.41
2019-06-10T01:49:47.987Z,80.45
2019-06-10T01:50:47.964Z,79.97
2019-06-10T01:51:47.966Z,81.60
2019-06-10T01:52:47.969Z,81.51
2019-06-10T01:53:47.949Z,80.93
2019-06-10T01:54:47.949Z,81.31
2019-06-10T01:55:47.941Z,81.89
2019-06-10T01:56:47.939Z,82.08
2019-06-10T01:57:47.950Z,82.08
2019-06-10T01:58:51.339Z,83.23
2019-06-10T01:59:47.923Z,81.02
2019-06-10T02:00:47.921Z,81.70
2019-06-10T02:01:47.918Z,81.89
2019-06-10T02:02:47.928Z,83.71
2019-06-10T02:03:47.904Z,82.71
2019-06-10T02:04:47.902Z,83.86
2019-06-10T02:05:47.906Z,83.19
2019-06-10T02:06:47.890Z,84.63
2019-06-10T02:07:47.891Z,84.63
2019-06-10T02:08:47.883Z,83.95
2019-06-10T02:09:47.876Z,84.25
2019-06-10T02:10:47.874Z,83.19
2019-06-10T02:11:47.875Z,84.53
2019-06-10T02:12:47.860Z,84.25
2019-06-10T02:13:47.857Z,84.72
2019-06-10T02:14:47.854Z,84.91
2019-06-10T02:15:47.846Z,85.49
2019-06-10T02:16:47.846Z,84.91
2019-06-10T02:17:47.836Z,85.30
2019-06-10T02:18:57.665Z,84.72
2019-06-10T02:19:47.828Z,84.72
2019-06-10T02:20:47.820Z,85.39
2019-06-10T02:21:47.823Z,84.91
2019-06-10T02:22:47.814Z,85.39
2019-06-10T02:23:47.811Z,85.88
2019-06-10T02:24:47.800Z,85.68
2019-06-10T02:25:47.801Z,85.68
2019-06-10T02:26:47.791Z,85.49
2019-06-10T02:27:47.799Z,84.82
2019-06-10T02:28:47.787Z,85.72
2019-06-10T02:29:47.779Z,85.78
2019-06-10T02:30:51.979Z,85.30
2019-06-10T02:31:47.773Z,85.49
2019-06-10T02:32:47.765Z,83.71
2019-06-10T02:33:47.761Z,84.63
2019-06-10T02:35:03.636Z,85.58
2019-06-10T02:35:49.135Z,84.53
2019-06-10T02:36:47.750Z,84.82
2019-06-10T02:37:47.741Z,85.11
2019-06-10T02:38:47.739Z,84.53
2019-06-10T02:39:47.736Z,83.33
2019-06-10T02:40:47.731Z,84.63
2019-06-10T02:41:47.731Z,85.49
2019-06-10T02:42:47.717Z,85.58
2019-06-10T02:43:47.714Z,85.11
2019-06-10T02:44:47.710Z,85.58
2019-06-10T02:45:47.701Z,85.58
2019-06-10T02:46:47.704Z,84.63
2019-06-10T02:47:47.696Z,85.49
2019-06-10T02:48:47.690Z,85.58
2019-06-10T02:49:57.429Z,85.39
2019-06-10T02:50:47.682Z,86.45
2019-06-10T02:51:47.671Z,86.58
2019-06-10T02:52:47.667Z,85.97
2019-06-10T02:53:47.665Z,85.88
2019-06-10T02:54:47.666Z,86.64
2019-06-10T02:55:47.657Z,86.83
2019-06-10T02:56:47.656Z,85.88
2019-06-10T02:57:47.686Z,86.35
2019-06-10T02:58:47.644Z,86.54
2019-06-10T02:59:47.640Z,86.54
2019-06-10T03:00:49.055Z,86.83
2019-06-10T03:01:47.631Z,86.83
2019-06-10T03:02:47.627Z,86.83
2019-06-10T03:03:49.534Z,86.83
2019-06-10T03:04:47.610Z,86.83
2019-06-10T03:05:47.620Z,86.83
2019-06-10T03:06:47.612Z,87.12
2019-06-10T03:07:47.606Z,86.83
2019-06-10T03:08:47.592Z,87.50
2019-06-10T03:09:47.594Z,86.35
2019-06-10T03:10:47.584Z,86.83
2019-06-10T03:11:47.591Z,87.02
2019-06-10T03:12:47.577Z,87.31
2019-06-10T03:13:47.569Z,87.70
2019-06-10T03:14:47.563Z,86.74
2019-06-10T03:15:47.558Z,87.02
2019-06-10T03:16:47.558Z,87.41
2019-06-10T03:17:47.546Z,86.74
2019-06-10T03:18:47.546Z,87.12
2019-06-10T03:19:50.532Z,86.54
2019-06-10T03:20:47.535Z,86.83
2019-06-10T03:21:47.531Z,87.02
2019-06-10T03:22:47.524Z,87.70
2019-06-10T03:23:47.523Z,87.60
2019-06-10T03:24:47.512Z,87.50
2019-06-10T03:25:49.277Z,86.83
2019-06-10T03:26:47.505Z,87.02
2019-06-10T03:27:47.498Z,86.64
2019-06-10T03:28:49.289Z,86.74
2019-06-10T03:29:47.494Z,86.45
2019-06-10T03:30:53.668Z,87.60
2019-06-10T03:31:48.564Z,87.98
2019-06-10T03:32:47.886Z,87.41
2019-06-10T03:33:48.121Z,87.88
2019-06-10T03:34:48.062Z,87.79
2019-06-10T03:35:47.462Z,87.98
2019-06-10T03:36:47.453Z,87.79
2019-06-10T03:37:47.447Z,87.50
2019-06-10T03:38:47.450Z,87.31
2019-06-10T03:39:49.284Z,86.74
2019-06-10T03:40:49.282Z,87.70
2019-06-10T03:41:47.431Z,87.50
2019-06-10T03:42:47.427Z,87.70
2019-06-10T03:43:49.288Z,87.79
2019-06-10T03:44:47.415Z,86.93
2019-06-10T03:45:47.411Z,87.98
2019-06-10T03:46:49.282Z,87.79
2019-06-10T03:47:47.403Z,87.31
2019-06-10T03:48:47.410Z,87.21
2019-06-10T03:49:52.551Z,86.35
2019-06-10T03:50:47.381Z,85.97
2019-06-10T03:51:47.378Z,86.74
2019-06-10T03:52:47.378Z,86.83
2019-06-10T03:53:47.375Z,86.25
2019-06-10T03:54:47.367Z,85.88
2019-06-10T03:55:47.362Z,86.83
2019-06-10T03:56:47.378Z,86.74
2019-06-10T03:57:47.353Z,86.74
2019-06-10T03:58:47.350Z,86.16
2019-06-10T03:59:47.341Z,86.83
2019-06-10T04:00:47.338Z,85.72
2019-06-10T04:01:47.335Z,85.92
2019-06-10T04:02:47.328Z,85.92
2019-06-10T04:03:47.324Z,85.30
2019-06-10T04:04:47.320Z,85.58
2019-06-10T04:05:47.316Z,85.97
2019-06-10T04:06:47.307Z,85.78
2019-06-10T04:07:47.303Z,86.58
2019-06-10T04:08:47.305Z,86.74
2019-06-10T04:09:47.297Z,86.68
2019-06-10T04:10:47.292Z,86.16
2019-06-10T04:11:47.289Z,86.45
2019-06-10T04:12:47.282Z,83.42
2019-06-10T04:13:47.275Z,84.86
2019-06-10T04:14:47.277Z,85.92
2019-06-10T04:15:47.267Z,86.40
2019-06-10T04:16:47.267Z,84.48
2019-06-10T04:17:47.273Z,85.44
2019-06-10T04:18:47.256Z,84.86
2019-06-10T04:19:47.250Z,84.95
2019-06-10T04:20:47.243Z,85.63
2019-06-10T04:21:47.241Z,85.63
2019-06-10T04:22:47.235Z,86.11
2019-06-10T04:23:47.232Z,85.92
2019-06-10T04:24:47.224Z,85.63
2019-06-10T04:25:47.225Z,85.05
2019-06-10T04:26:47.226Z,84.67
2019-06-10T04:27:47.215Z,85.53
2019-06-10T04:28:47.208Z,85.72
2019-06-10T04:29:47.205Z,84.67
2019-06-10T04:30:47.199Z,85.72
2019-06-10T04:31:47.196Z,86.88
2019-06-10T04:32:48.816Z,86.11
2019-06-10T04:33:47.187Z,86.21
2019-06-10T04:34:47.181Z,86.01
2019-06-10T04:35:47.175Z,85.63
2019-06-10T04:36:47.175Z,85.82
2019-06-10T04:37:47.171Z,84.77
2019-06-10T04:38:47.183Z,85.34
2019-06-10T04:39:47.166Z,85.92
2019-06-10T04:40:47.153Z,85.25
2019-06-10T04:41:47.153Z,84.19
2019-06-10T04:42:47.142Z,84.67
2019-06-10T04:43:47.140Z,84.67
2019-06-10T04:44:47.137Z,85.44
2019-06-10T04:45:47.133Z,84.28
2019-06-10T04:46:47.126Z,85.25
2019-06-10T04:47:47.126Z,85.72
2019-06-10T04:48:47.121Z,86.58
2019-06-10T04:49:47.112Z,85.92
2019-06-10T04:50:47.103Z,84.67
2019-06-10T04:51:47.102Z,85.44
2019-06-10T04:52:47.116Z,86.49
2019-06-10T04:53:47.100Z,86.58
2019-06-10T04:54:47.091Z,86.68
2019-06-10T04:55:47.087Z,87.35
2019-06-10T04:56:47.081Z,86.58
2019-06-10T04:57:47.079Z,86.88
2019-06-10T04:58:47.073Z,86.40
2019-06-10T04:59:47.074Z,86.97
2019-06-10T05:00:47.066Z,86.58
2019-06-10T05:01:47.066Z,86.30
2019-06-10T05:02:47.058Z,86.11
2019-06-10T05:03:47.056Z,86.88
2019-06-10T05:04:47.053Z,85.25
2019-06-10T05:05:47.043Z,86.30
2019-06-10T05:06:47.039Z,86.21
2019-06-10T05:07:47.031Z,86.01
2019-06-10T05:08:47.029Z,85.77
2019-06-10T05:09:47.029Z,85.10
2019-06-10T05:10:47.024Z,85.38
2019-06-10T05:11:47.016Z,85.00
2019-06-10T05:12:47.016Z,85.28
2019-06-10T05:13:47.010Z,85.48
2019-06-10T05:14:47.005Z,85.86
2019-06-10T05:15:47.001Z,86.15
2019-06-10T05:16:46.997Z,85.77
2019-06-10T05:17:46.994Z,85.67
2019-06-10T05:18:46.986Z,85.38
2019-06-10T05:19:46.980Z,85.77
2019-06-10T05:20:57.734Z,85.10
2019-06-10T05:21:46.978Z,84.91
2019-06-10T05:22:46.978Z,83.85
2019-06-10T05:23:46.963Z,85.00
2019-06-10T05:24:46.961Z,84.91
2019-06-10T05:25:46.959Z,84.71
2019-06-10T05:26:46.955Z,84.52
2019-06-10T05:27:46.947Z,84.23
2019-06-10T05:28:46.944Z,84.52
2019-06-10T05:29:46.939Z,84.23
2019-06-10T05:30:46.939Z,83.65
2019-06-10T05:31:46.937Z,84.14
2019-06-10T05:32:46.926Z,84.52
2019-06-10T05:33:46.926Z,84.04
2019-06-10T05:34:46.918Z,84.23
2019-06-10T05:35:46.914Z,83.56
2019-06-10T05:36:46.911Z,84.14
2019-06-10T05:37:46.908Z,83.27
2019-06-10T05:38:46.906Z,84.23
2019-06-10T05:39:46.900Z,84.52
2019-06-10T05:40:46.896Z,84.23
2019-06-10T05:41:49.982Z,83.85
2019-06-10T05:42:46.888Z,83.94
2019-06-10T05:43:46.889Z,83.60
2019-06-10T05:44:46.882Z,84.08
2019-06-10T05:45:48.866Z,84.37
2019-06-10T05:46:48.857Z,84.18
2019-06-10T05:47:46.867Z,84.37
2019-06-10T05:48:46.861Z,84.27
2019-06-10T05:49:46.858Z,83.89
2019-06-10T05:50:59.238Z,84.18
2019-06-10T05:51:46.857Z,84.56
2019-06-10T05:52:46.858Z,83.89
2019-06-10T05:53:46.850Z,83.89
2019-06-10T05:54:46.840Z,83.54
2019-06-10T05:55:46.859Z,83.16
2019-06-10T05:56:46.839Z,82.49
2019-06-10T05:57:46.836Z,83.16
2019-06-10T05:58:46.856Z,82.40
2019-06-10T05:59:46.822Z,82.30
2019-06-10T06:00:46.824Z,81.92
2019-06-10T06:01:46.818Z,81.92
2019-06-10T06:02:46.809Z,81.53
2019-06-10T06:03:46.815Z,81.05
2019-06-10T06:04:48.370Z,80.86
2019-06-10T06:05:46.808Z,81.92
2019-06-10T06:06:46.803Z,81.72
2019-06-10T06:08:01.071Z,83.30
2019-06-10T06:08:46.797Z,83.01
2019-06-10T06:09:46.789Z,82.24
2019-06-10T06:10:46.788Z,80.61
2019-06-10T06:11:46.787Z,80.80
2019-06-10T06:12:46.784Z,79.65
2019-06-10T06:13:46.779Z,79.36
2019-06-10T06:14:46.779Z,78.40
2019-06-10T06:15:46.774Z,77.09
2019-06-10T06:16:46.774Z,77.48
2019-06-10T06:17:46.773Z,77.09
2019-06-10T06:18:46.764Z,76.04
2019-06-10T06:19:46.766Z,75.75
2019-06-10T06:20:46.762Z,75.49
2019-06-10T06:21:47.933Z,74.60
2019-06-10T06:22:46.761Z,75.59
2019-06-10T06:23:46.756Z,76.07
2019-06-10T06:24:46.753Z,76.17
2019-06-10T06:25:47.153Z,74.63
2019-06-10T06:26:46.749Z,73.51
2019-06-10T06:27:46.749Z,73.22
2019-06-10T06:28:46.742Z,72.84
2019-06-10T06:29:46.746Z,71.97
2019-06-10T06:30:46.744Z,71.49
2019-06-10T06:31:46.742Z,71.40
2019-06-10T06:32:46.740Z,71.59
2019-06-10T06:33:46.740Z,72.01
2019-06-10T06:34:46.733Z,71.91
2019-06-10T06:35:46.900Z,71.43
2019-06-10T06:36:46.736Z,69.99
2019-06-10T06:37:46.731Z,69.89
2019-06-10T06:38:46.730Z,69.41
2019-06-10T06:39:46.731Z,68.74
2019-06-10T06:40:46.733Z,68.16
2019-06-10T06:41:46.730Z,68.84
2019-06-10T06:42:46.724Z,68.74
2019-06-10T06:43:46.728Z,68.84
2019-06-10T06:44:46.726Z,68.84
2019-06-10T06:45:46.724Z,71.11
2019-06-10T06:46:46.723Z,72.17
2019-06-10T06:47:46.721Z,72.36
2019-06-10T06:48:46.731Z,71.69
2019-06-10T06:49:46.717Z,71.49
2019-06-10T06:51:01.681Z,72.07
2019-06-10T06:51:54.765Z,72.55
2019-06-10T06:53:19.055Z,73.03
2019-06-10T06:53:52.133Z,72.94
2019-06-10T06:54:46.711Z,73.42
2019-06-10T06:55:46.712Z,73.71
2019-06-10T06:56:46.711Z,73.51
2019-06-10T06:57:46.705Z,73.99
2019-06-10T06:58:46.704Z,73.32
2019-06-10T06:59:46.706Z,73.22
2019-06-10T07:01:00.252Z,73.99
2019-06-10T07:01:46.703Z,73.22
2019-06-10T07:02:46.704Z,72.84
2019-06-10T07:03:46.704Z,72.84
2019-06-10T07:04:46.695Z,73.07
2019-06-10T07:05:46.697Z,73.26
2019-06-10T07:06:46.698Z,72.97
2019-06-10T07:07:46.693Z,73.26
2019-06-10T07:09:00.323Z,72.49
2019-06-10T07:09:46.693Z,72.68
2019-06-10T07:10:46.692Z,72.30
2019-06-10T07:11:46.867Z,72.11
2019-06-10T07:12:46.687Z,72.39
2019-06-10T07:13:46.689Z,72.49
2019-06-10T07:14:46.704Z,72.59
2019-06-10T07:15:48.431Z,72.30
2019-06-10T07:16:48.417Z,72.01
2019-06-10T07:17:46.683Z,71.72
2019-06-10T07:18:50.110Z,72.39
2019-06-10T07:19:46.679Z,74.03
2019-06-10T07:20:46.679Z,73.65
2019-06-10T07:22:07.418Z,74.51
2019-06-10T07:22:46.871Z,74.32
2019-06-10T07:23:47.165Z,73.74
2019-06-10T07:24:47.743Z,74.32
2019-06-10T07:25:47.697Z,74.41
2019-06-10T07:26:52.100Z,74.51
2019-06-10T07:27:47.090Z,74.80
2019-06-10T07:28:47.487Z,74.13
2019-06-10T07:29:47.461Z,74.22
2019-06-10T07:30:51.759Z,73.01
2019-06-10T07:31:50.121Z,71.47
2019-06-10T07:32:47.404Z,69.93
2019-06-10T07:33:47.415Z,71.66
2019-06-10T07:34:47.013Z,72.63
2019-06-10T07:35:46.661Z,71.37
2019-06-10T07:36:46.663Z,71.47
2019-06-10T07:37:46.664Z,70.70
2019-06-10T07:38:49.071Z,70.35
2019-06-10T07:39:46.656Z,69.96
2019-06-10T07:40:46.678Z,69.48
2019-06-10T07:41:47.871Z,67.84
2019-06-10T07:42:46.649Z,66.88
2019-06-10T07:43:49.655Z,68.16
2019-06-10T07:44:46.650Z,68.16
2019-06-10T07:45:48.098Z,67.40
2019-06-10T07:46:46.653Z,66.14
2019-06-10T07:47:46.648Z,65.08
2019-06-10T07:48:48.673Z,64.98
2019-06-10T07:49:46.648Z,64.76
2019-06-10T07:50:46.647Z,66.11
2019-06-10T07:51:46.715Z,65.91
2019-06-10T07:52:46.974Z,65.81
2019-06-10T07:53:46.939Z,66.20
2019-06-10T07:54:46.647Z,66.78
2019-06-10T07:55:46.774Z,67.74
2019-06-10T07:56:50.380Z,67.65
2019-06-10T07:57:46.645Z,68.71
2019-06-10T07:58:47.697Z,69.96
2019-06-10T07:59:46.643Z,69.19
2019-06-10T08:00:48.464Z,68.32
2019-06-10T08:01:51.444Z,68.71
2019-06-10T08:02:46.638Z,68.90
2019-06-10T08:03:46.743Z,68.61
2019-06-10T08:04:46.641Z,68.04
2019-06-10T08:05:46.819Z,67.88
2019-06-10T08:06:49.791Z,67.49
2019-06-10T08:07:48.823Z,67.40
2019-06-10T08:08:47.258Z,68.55
2019-06-10T08:09:47.475Z,65.59
2019-06-10T08:10:48.142Z,65.43
2019-06-10T08:11:48.304Z,63.12
2019-06-10T08:12:48.345Z,61.28
2019-06-10T08:13:47.982Z,62.44
2019-06-10T08:14:47.908Z,64.66
2019-06-10T08:15:48.232Z,65.24
2019-06-10T08:16:46.823Z,64.69
2019-06-10T08:17:46.651Z,63.15
2019-06-10T08:19:14.000Z,63.08
2019-06-10T08:19:50.819Z,62.44
2019-06-10T08:20:47.703Z,59.95
2019-06-10T08:21:48.987Z,58.21
2019-06-10T08:22:54.071Z,57.05
2019-06-10T08:23:47.491Z,57.63
2019-06-10T08:24:47.843Z,56.54
2019-06-10T08:25:53.178Z,56.99
2019-06-10T08:26:47.789Z,58.15
2019-06-10T08:27:47.818Z,59.83
2019-06-10T08:28:48.326Z,58.95
2019-06-10T08:29:49.504Z,59.95
2019-06-10T08:30:48.163Z,58.02
2019-06-10T08:31:49.517Z,57.92
2019-06-10T08:32:48.967Z,54.53
2019-06-10T08:33:47.877Z,56.95
2019-06-10T08:34:48.091Z,57.44
2019-06-10T08:35:56.428Z,56.70
2019-06-10T08:36:50.419Z,55.98
2019-06-10T08:37:47.473Z,54.64
2019-06-10T08:38:48.673Z,54.48
2019-06-10T08:39:47.696Z,53.05
2019-06-10T08:40:48.449Z,53.44
2019-06-10T08:41:48.829Z,52.50
2019-06-10T08:42:48.753Z,52.33
2019-06-10T08:43:48.469Z,52.42
2019-06-10T08:44:48.491Z,50.21
2019-06-10T08:45:47.494Z,49.54
2019-06-10T08:46:47.336Z,49.95
2019-06-10T08:47:47.717Z,49.24
2019-06-10T08:48:48.169Z,49.05
2019-06-10T08:49:49.009Z,48.73
2019-06-10T08:50:49.948Z,49.49
2019-06-10T08:51:49.777Z,50.56
2019-06-10T08:53:03.945Z,50.36
2019-06-10T08:53:49.856Z,51.72
2019-06-10T08:54:49.829Z,50.58
2019-06-10T08:55:49.301Z,51.26
2019-06-10T08:56:50.316Z,50.16
2019-06-10T08:57:49.421Z,51.62
2019-06-10T08:58:49.665Z,51.14
2019-06-10T08:59:49.003Z,51.43
2019-06-10T09:00:49.335Z,50.84
2019-06-10T09:01:51.436Z,50.65
2019-06-10T09:02:49.069Z,50.58
2019-06-10T09:03:49.352Z,50.19
2019-06-10T09:04:50.073Z,49.90
2019-06-10T09:05:49.859Z,49.61
2019-06-10T09:06:50.377Z,49.80
2019-06-10T09:07:49.989Z,49.99
2019-06-10T09:08:49.945Z,49.71
2019-06-10T09:09:49.153Z,49.29
2019-06-10T09:10:49.795Z,49.58
2019-06-10T09:11:49.440Z,49.85
2019-06-10T09:12:50.462Z,49.17
2019-06-10T09:13:48.325Z,50.60
2019-06-10T09:14:48.762Z,50.02
2019-06-10T09:16:03.708Z,51.18
2019-06-10T09:16:48.914Z,51.96
2019-06-10T09:17:49.587Z,51.50
2019-06-10T09:18:49.307Z,50.79
2019-06-10T09:19:49.176Z,50.12
2019-06-10T09:20:52.407Z,51.18
2019-06-10T09:21:51.085Z,51.86
2019-06-10T09:22:50.175Z,50.82
2019-06-10T09:23:51.519Z,51.01
2019-06-10T09:24:49.407Z,51.11
2019-06-10T09:25:50.473Z,50.99
2019-06-10T09:26:50.144Z,51.18
2019-06-10T09:27:49.604Z,51.01
2019-06-10T09:28:52.370Z,51.67
2019-06-10T09:29:49.769Z,51.59
2019-06-10T09:30:52.550Z,51.40
2019-06-10T09:31:51.296Z,51.23
2019-06-10T09:32:49.927Z,50.48
2019-06-10T09:33:50.753Z,49.10
2019-06-10T09:34:52.199Z,47.74
2019-06-10T09:35:50.350Z,49.97
2019-06-10T09:36:51.793Z,51.23
2019-06-10T09:37:49.997Z,49.99
2019-06-10T09:38:49.036Z,49.99
2019-06-10T09:39:52.477Z,49.73
2019-06-10T09:40:51.546Z,49.15
2019-06-10T09:41:55.377Z,47.47
2019-06-10T09:42:52.062Z,49.22
2019-06-10T09:43:51.627Z,49.44
2019-06-10T09:44:49.200Z,49.63
2019-06-10T09:45:50.393Z,49.27
2019-06-10T09:46:48.872Z,48.00
2019-06-10T09:47:50.577Z,48.49
2019-06-10T09:48:51.206Z,47.74
2019-06-10T09:49:49.176Z,48.90
2019-06-10T09:50:50.808Z,47.47
2019-06-10T09:51:50.091Z,48.05
2019-06-10T09:52:50.436Z,46.81
2019-06-10T09:53:56.321Z,47.49
2019-06-10T09:54:51.609Z,47.30
2019-06-10T09:55:49.723Z,46.32
2019-06-10T09:56:48.816Z,47.32
2019-06-10T09:57:49.726Z,45.37
2019-06-10T09:58:49.336Z,46.15
2019-06-10T09:59:51.364Z,45.76
2019-06-10T10:00:49.370Z,45.98
2019-06-10T10:01:50.994Z,47.34
2019-06-10T10:02:50.273Z,44.81
2019-06-10T10:03:52.089Z,44.69
2019-06-10T10:04:52.894Z,45.39
2019-06-10T10:05:59.302Z,43.93
2019-06-10T10:06:50.195Z,45.20
2019-06-10T10:07:50.782Z,44.49
2019-06-10T10:08:52.439Z,45.47
2019-06-10T10:09:51.389Z,45.76
2019-06-10T10:10:51.090Z,44.96
2019-06-10T10:11:48.875Z,46.81
2019-06-10T10:12:49.037Z,46.88
2019-06-10T10:13:49.455Z,46.67
2019-06-10T10:14:49.829Z,47.23
2019-06-10T10:15:48.137Z,47.42
2019-06-10T10:16:52.271Z,47.23
2019-06-10T10:17:48.306Z,46.25
2019-06-10T10:18:49.423Z,49.00
2019-06-10T10:19:49.670Z,47.27
2019-06-10T10:20:49.771Z,46.20
2019-06-10T10:21:50.209Z,45.81
2019-06-10T10:22:48.851Z,45.62
2019-06-10T10:23:58.316Z,46.61
2019-06-10T10:24:47.620Z,46.91
2019-06-10T10:25:48.224Z,43.89
2019-06-10T10:26:50.856Z,42.99
2019-06-10T10:27:50.700Z,44.53
2019-06-10T10:28:49.882Z,44.99
2019-06-10T10:29:49.982Z,46.06
2019-06-10T10:30:50.306Z,48.10
2019-06-10T10:31:49.460Z,46.55
2019-06-10T10:32:49.482Z,46.96
2019-06-10T10:33:48.404Z,45.31
2019-06-10T10:34:48.707Z,44.82
2019-06-10T10:35:48.032Z,44.53
2019-06-10T10:36:48.726Z,45.69
2019-06-10T10:37:48.511Z,45.89
2019-06-10T10:38:48.783Z,45.79
2019-06-10T10:39:49.042Z,45.52
2019-06-10T10:40:49.302Z,45.18
2019-06-10T10:41:48.684Z,42.65
2019-06-10T10:42:53.049Z,43.43
2019-06-10T10:43:49.341Z,42.49
2019-06-10T10:44:50.949Z,41.42
2019-06-10T10:45:50.333Z,41.60
2019-06-10T10:46:47.576Z,41.96
2019-06-10T10:47:47.471Z,42.24
2019-06-10T10:48:49.108Z,43.77
2019-06-10T10:49:47.489Z,45.91
2019-06-10T10:50:47.538Z,45.84
2019-06-10T10:51:47.497Z,42.60
2019-06-10T10:52:48.614Z,44.94
2019-06-10T10:53:57.296Z,46.03
2019-06-10T10:54:47.933Z,45.45
2019-06-10T10:55:47.532Z,45.57
2019-06-10T10:56:49.244Z,43.25
2019-06-10T10:57:47.548Z,43.84
2019-06-10T10:58:48.938Z,42.47
2019-06-10T10:59:47.814Z,43.15
2019-06-10T11:00:49.899Z,43.23
2019-06-10T11:01:47.602Z,44.09
2019-06-10T11:02:50.605Z,43.99
2019-06-10T11:03:49.545Z,43.60
2019-06-10T11:04:47.940Z,44.48
2019-06-10T11:05:49.841Z,44.96
2019-06-10T11:06:47.797Z,45.37
2019-06-10T11:07:47.760Z,44.59
2019-06-10T11:08:48.311Z,43.70
2019-06-10T11:09:48.541Z,43.21
2019-06-10T11:10:49.463Z,45.54
2019-06-10T11:11:48.852Z,45.15
2019-06-10T11:12:49.005Z,44.16
2019-06-10T11:13:47.651Z,44.31
2019-06-10T11:14:47.691Z,45.17
2019-06-10T11:15:49.009Z,46.98
2019-06-10T11:16:47.669Z,47.93
2019-06-10T11:17:47.688Z,48.71
2019-06-10T11:18:47.681Z,47.74
2019-06-10T11:19:47.730Z,47.83
2019-06-10T11:20:47.694Z,48.71
2019-06-10T11:21:47.701Z,48.22
2019-06-10T11:22:47.710Z,48.22
2019-06-10T11:23:48.095Z,48.32
2019-06-10T11:24:49.173Z,46.86
2019-06-10T11:25:47.818Z,46.67
2019-06-10T11:26:47.873Z,47.55
2019-06-10T11:27:48.485Z,48.69
2019-06-10T11:28:47.734Z,49.39
2019-06-10T11:29:48.160Z,46.96
2019-06-10T11:30:47.745Z,47.25
2019-06-10T11:31:48.452Z,47.38
2019-06-10T11:32:48.003Z,47.06
2019-06-10T11:33:48.718Z,47.06
2019-06-10T11:34:47.831Z,47.25
2019-06-10T11:35:48.776Z,49.02
2019-06-10T11:36:48.036Z,47.86
2019-06-10T11:37:48.884Z,47.98
2019-06-10T11:38:48.595Z,47.98
2019-06-10T11:39:48.153Z,46.14
2019-06-10T11:40:49.198Z,45.17
2019-06-10T11:41:48.142Z,44.95
2019-06-10T11:42:48.345Z,45.34
2019-06-10T11:43:48.349Z,46.67
2019-06-10T11:44:48.381Z,47.52
2019-06-10T11:45:52.656Z,47.91
2019-06-10T11:46:48.611Z,48.78
2019-06-10T11:47:49.374Z,49.29
2019-06-10T11:48:48.940Z,48.90
2019-06-10T11:49:48.983Z,47.25
2019-06-10T11:50:49.149Z,47.16
2019-06-10T11:51:47.845Z,47.42
2019-06-10T11:52:47.851Z,48.71
2019-06-10T11:53:48.397Z,49.39
2019-06-10T11:54:58.228Z,47.76
2019-06-10T11:55:47.855Z,47.06
2019-06-10T11:56:47.861Z,47.16
2019-06-10T11:57:47.963Z,47.83
2019-06-10T11:58:47.946Z,47.96
2019-06-10T11:59:48.054Z,46.72
2019-06-10T12:00:48.692Z,45.75
2019-06-10T12:01:49.206Z,47.01
2019-06-10T12:02:48.221Z,46.84
2019-06-10T12:03:48.466Z,46.15
2019-06-10T12:04:48.365Z,46.18
2019-06-10T12:05:49.070Z,45.40
2019-06-10T12:06:48.654Z,45.31
2019-06-10T12:07:48.854Z,45.48
2019-06-10T12:08:48.936Z,46.84
2019-06-10T12:09:48.957Z,46.74
2019-06-10T12:10:49.035Z,46.64
2019-06-10T12:11:49.099Z,46.64
2019-06-10T12:12:48.925Z,46.35
2019-06-10T12:13:49.096Z,46.77
2019-06-10T12:14:49.296Z,46.67
2019-06-10T12:16:20.940Z,45.91
2019-06-10T12:17:17.750Z,45.04
2019-06-10T12:17:53.552Z,44.55
2019-06-10T12:18:49.028Z,44.82
2019-06-10T12:19:49.742Z,46.64
2019-06-10T12:20:47.957Z,46.84
2019-06-10T12:21:47.965Z,46.91
2019-06-10T12:22:47.974Z,47.11
2019-06-10T12:23:47.972Z,47.59
2019-06-10T12:24:47.976Z,47.57
2019-06-10T12:25:48.137Z,48.42
2019-06-10T12:26:47.988Z,48.90
2019-06-10T12:27:47.996Z,49.39
2019-06-10T12:28:47.998Z,49.90
2019-06-10T12:29:48.010Z,48.57
2019-06-10T12:30:48.007Z,48.32
2019-06-10T12:31:48.012Z,47.08
2019-06-10T12:32:48.019Z,46.13
2019-06-10T12:33:48.027Z,45.15
2019-06-10T12:34:48.031Z,44.57
2019-06-10T12:35:48.050Z,45.32
2019-06-10T12:36:48.039Z,45.32
2019-06-10T12:37:48.040Z,46.11
2019-06-10T12:38:48.112Z,46.69
2019-06-10T12:39:48.050Z,46.47
2019-06-10T12:40:48.541Z,46.77
2019-06-10T12:41:48.064Z,46.94
2019-06-10T12:42:48.057Z,47.52
2019-06-10T12:43:48.070Z,47.40
2019-06-10T12:44:48.504Z,47.88
2019-06-10T12:45:48.078Z,48.95
2019-06-10T12:46:48.078Z,48.95
2019-06-10T12:47:48.095Z,48.18
2019-06-10T12:48:48.087Z,48.97
2019-06-10T12:49:48.091Z,47.81
2019-06-10T12:50:48.097Z,47.86
2019-06-10T12:51:48.097Z,47.00
2019-06-10T12:52:48.105Z,46.71